createdAt,value
2017-10-30T00:00:34.613Z,2.33
2017-10-30T00:03:02.093Z,2.50
2017-10-30T00:05:29.537Z,2.40
2017-10-30T00:07:56.990Z,2.03
2017-10-30T00:10:24.461Z,2.40
2017-10-30T00:12:51.916Z,2.70
2017-10-30T00:15:19.391Z,2.70
2017-10-30T00:17:47.616Z,2.63
2017-10-30T00:20:15.081Z,2.77
2017-10-30T00:22:42.543Z,2.10
2017-10-30T00:25:10.035Z,2.10
2017-10-30T00:27:37.464Z,1.77
2017-10-30T00:30:04.923Z,1.93
2017-10-30T00:32:32.848Z,2.23
2017-10-30T00:35:00.482Z,2.40
2017-10-30T00:37:27.930Z,1.97
2017-10-30T00:39:55.401Z,2.20
2017-10-30T00:42:22.850Z,2.60
2017-10-30T00:44:50.320Z,1.50
2017-10-30T00:47:17.767Z,1.93
2017-10-30T00:49:45.262Z,2.07
2017-10-30T00:52:12.983Z,1.63
2017-10-30T00:54:40.462Z,2.50
2017-10-30T00:57:08.682Z,1.70
2017-10-30T00:59:36.133Z,2.43
2017-10-30T01:02:03.610Z,2.13
2017-10-30T01:04:31.832Z,2.27
2017-10-30T01:06:59.315Z,1.70
2017-10-30T01:09:26.837Z,3.03
2017-10-30T01:11:54.281Z,3.80
2017-10-30T01:14:21.759Z,3.07
2017-10-30T01:16:49.986Z,2.03
2017-10-30T01:19:17.463Z,2.20
2017-10-30T01:21:44.918Z,3.13
2017-10-30T01:24:12.397Z,2.17
2017-10-30T01:26:39.851Z,2.67
2017-10-30T01:29:08.224Z,3.80
2017-10-30T01:31:35.698Z,2.73
2017-10-30T01:34:03.183Z,2.73
2017-10-30T01:36:30.677Z,3.37
2017-10-30T01:38:58.212Z,2.83
2017-10-30T01:41:25.686Z,3.33
2017-10-30T01:43:53.138Z,3.63
2017-10-30T01:46:20.599Z,3.43
2017-10-30T01:48:48.069Z,2.60
2017-10-30T01:51:15.546Z,3.00
2017-10-30T01:53:43.011Z,2.40
2017-10-30T01:56:10.485Z,2.70
2017-10-30T01:58:38.673Z,2.90
2017-10-30T02:01:06.901Z,3.43
2017-10-30T02:03:34.349Z,3.00
2017-10-30T02:06:01.805Z,2.73
2017-10-30T02:08:29.265Z,2.43
2017-10-30T02:10:56.758Z,3.23
2017-10-30T02:13:24.209Z,2.07
2017-10-30T02:15:51.658Z,2.70
2017-10-30T02:18:19.126Z,2.27
2017-10-30T02:20:46.608Z,2.40
2017-10-30T02:23:14.834Z,2.60
2017-10-30T02:25:42.302Z,2.50
2017-10-30T02:28:09.761Z,3.50
2017-10-30T02:30:37.263Z,1.67
2017-10-30T02:33:05.497Z,2.80
2017-10-30T02:35:32.982Z,2.87
2017-10-30T02:38:00.446Z,1.90
2017-10-30T02:40:28.662Z,2.23
2017-10-30T02:42:56.138Z,2.13
2017-10-30T02:45:23.598Z,1.67
2017-10-30T02:47:51.037Z,2.20
2017-10-30T02:50:18.513Z,1.83
2017-10-30T02:52:45.965Z,1.60
2017-10-30T02:55:13.434Z,1.80
2017-10-30T02:57:40.890Z,2.10
2017-10-30T03:00:08.413Z,1.90
2017-10-30T03:02:35.889Z,2.27
2017-10-30T03:05:03.353Z,1.57
2017-10-30T03:07:30.827Z,2.57
2017-10-30T03:09:58.297Z,1.63
2017-10-30T03:12:25.770Z,1.50
2017-10-30T03:14:53.225Z,2.87
2017-10-30T03:17:20.693Z,1.60
2017-10-30T03:19:48.161Z,1.63
2017-10-30T03:22:15.617Z,1.90
2017-10-30T03:24:43.094Z,1.90
2017-10-30T03:27:10.542Z,2.10
2017-10-30T03:29:38.097Z,1.90
2017-10-30T03:32:06.354Z,1.37
2017-10-30T03:34:33.798Z,2.17
2017-10-30T03:37:01.252Z,1.70
2017-10-30T03:39:28.732Z,1.57
2017-10-30T03:41:56.206Z,1.53
2017-10-30T03:44:24.436Z,1.93
2017-10-30T03:46:51.887Z,2.23
2017-10-30T03:49:19.357Z,2.13
2017-10-30T03:51:46.826Z,2.70
2017-10-30T03:54:14.276Z,3.13
2017-10-30T03:56:41.765Z,1.87
2017-10-30T03:59:10.926Z,1.50
2017-10-30T04:01:38.382Z,1.67
2017-10-30T04:04:05.854Z,2.00
2017-10-30T04:06:33.314Z,2.00
2017-10-30T04:09:00.792Z,1.80
2017-10-30T04:11:28.248Z,1.80
2017-10-30T04:13:56.464Z,2.57
2017-10-30T04:16:23.938Z,2.33
2017-10-30T04:18:51.390Z,1.83
2017-10-30T04:21:18.878Z,1.67
2017-10-30T04:23:48.187Z,2.53
2017-10-30T04:26:15.819Z,2.37
2017-10-30T04:28:43.296Z,2.33
2017-10-30T04:31:11.402Z,2.10
2017-10-30T04:33:38.854Z,1.63
2017-10-30T04:36:06.350Z,2.50
2017-10-30T04:38:33.806Z,2.20
2017-10-30T04:41:01.260Z,2.10
2017-10-30T04:43:28.760Z,2.90
2017-10-30T04:45:56.223Z,2.20
2017-10-30T04:48:23.681Z,3.10
2017-10-30T04:50:51.149Z,3.23
2017-10-30T04:53:18.631Z,2.63
2017-10-30T04:55:46.856Z,2.23
2017-10-30T04:58:15.235Z,1.90
2017-10-30T05:00:42.700Z,1.50
2017-10-30T05:03:10.171Z,2.03
2017-10-30T05:05:37.653Z,2.67
2017-10-30T05:08:05.097Z,1.80
2017-10-30T05:10:32.561Z,2.77
2017-10-30T05:13:00.039Z,1.70
2017-10-30T05:15:27.476Z,1.43
2017-10-30T05:17:54.938Z,2.20
2017-10-30T05:20:22.521Z,2.90
2017-10-30T05:22:49.970Z,2.10
2017-10-30T05:25:18.187Z,2.30
2017-10-30T05:27:45.671Z,2.50
2017-10-30T05:30:13.141Z,3.93
2017-10-30T05:32:40.585Z,2.03
2017-10-30T05:35:08.065Z,3.03
2017-10-30T05:37:36.290Z,2.23
2017-10-30T05:40:03.762Z,1.77
2017-10-30T05:42:31.253Z,2.27
2017-10-30T05:44:58.706Z,1.73
2017-10-30T05:47:26.933Z,1.80
2017-10-30T05:49:54.461Z,2.20
2017-10-30T05:52:22.697Z,2.73
2017-10-30T05:54:50.165Z,3.00
2017-10-30T05:57:17.642Z,2.83
2017-10-30T05:59:45.886Z,2.50
2017-10-30T06:02:13.353Z,2.10
2017-10-30T06:04:41.593Z,1.90
2017-10-30T06:07:09.053Z,2.63
2017-10-30T06:09:36.534Z,2.20
2017-10-30T06:12:04.033Z,2.00
2017-10-30T06:14:32.249Z,2.43
2017-10-30T06:16:59.766Z,2.47
2017-10-30T06:19:28.150Z,1.93
2017-10-30T06:21:56.366Z,2.30
2017-10-30T06:24:23.875Z,3.30
2017-10-30T06:26:51.346Z,2.60
2017-10-30T06:29:19.113Z,1.83
2017-10-30T06:31:47.345Z,2.40
2017-10-30T06:34:15.554Z,2.37
2017-10-30T06:36:43.762Z,2.17
2017-10-30T06:39:11.225Z,1.97
2017-10-30T06:41:38.702Z,2.47
2017-10-30T06:44:06.147Z,1.80
2017-10-30T06:46:33.602Z,2.23
2017-10-30T06:49:01.074Z,2.40
2017-10-30T06:51:28.541Z,1.83
2017-10-30T06:53:56.006Z,2.43
2017-10-30T06:56:23.481Z,1.73
2017-10-30T06:58:50.931Z,2.30
2017-10-30T07:01:18.380Z,2.50
2017-10-30T07:03:45.854Z,2.63
2017-10-30T07:06:14.222Z,1.40
2017-10-30T07:08:41.694Z,2.47
2017-10-30T07:11:09.142Z,1.80
2017-10-30T07:13:36.607Z,1.40
2017-10-30T07:16:04.054Z,1.67
2017-10-30T07:18:31.557Z,2.00
2017-10-30T07:20:59.007Z,1.60
2017-10-30T07:23:27.217Z,2.13
2017-10-30T07:25:54.735Z,1.70
2017-10-30T07:28:23.068Z,2.13
2017-10-30T07:30:50.527Z,1.77
2017-10-30T07:33:18.001Z,2.50
2017-10-30T07:35:45.454Z,2.70
2017-10-30T07:38:12.900Z,5.00
2017-10-30T07:40:40.418Z,1.50
2017-10-30T07:43:08.666Z,2.13
2017-10-30T07:45:36.126Z,3.30
2017-10-30T07:48:03.609Z,2.23
2017-10-30T07:50:31.070Z,2.07
2017-10-30T07:52:59.286Z,2.30
2017-10-30T07:55:26.746Z,2.50
2017-10-30T07:57:54.189Z,2.20
2017-10-30T08:00:21.725Z,1.70
2017-10-30T08:02:49.170Z,2.40
2017-10-30T08:05:17.413Z,2.17
2017-10-30T08:07:45.621Z,1.95
2017-10-30T08:10:13.161Z,2.50
2017-10-30T08:12:40.642Z,2.50
2017-10-30T08:15:08.105Z,2.60
2017-10-30T08:17:35.586Z,3.33
2017-10-30T08:20:03.030Z,3.70
2017-10-30T08:22:30.498Z,3.40
2017-10-30T08:24:57.949Z,2.80
2017-10-30T08:27:25.420Z,2.23
2017-10-30T08:29:52.868Z,2.63
2017-10-30T08:32:20.338Z,2.23
2017-10-30T08:34:47.802Z,2.33
2017-10-30T08:37:16.195Z,2.00
2017-10-30T08:39:43.702Z,2.40
2017-10-30T08:42:11.929Z,1.70
2017-10-30T08:44:39.385Z,2.93
2017-10-30T08:47:06.825Z,1.97
2017-10-30T08:49:34.352Z,1.80
2017-10-30T08:52:02.101Z,2.37
2017-10-30T08:54:29.566Z,2.03
2017-10-30T08:56:57.009Z,2.40
2017-10-30T08:59:24.482Z,2.47
2017-10-30T09:01:51.949Z,1.77
2017-10-30T09:04:19.427Z,1.70
2017-10-30T09:06:46.900Z,2.33
2017-10-30T09:09:14.398Z,2.97
2017-10-30T09:11:41.854Z,2.00
2017-10-30T09:14:09.322Z,1.77
2017-10-30T09:16:37.563Z,2.20
2017-10-30T09:19:05.022Z,1.93
2017-10-30T09:21:32.667Z,2.17
2017-10-30T09:24:00.158Z,1.80
2017-10-30T09:26:27.597Z,1.97
2017-10-30T09:28:55.062Z,2.30
2017-10-30T09:31:22.517Z,1.80
2017-10-30T09:33:50.001Z,1.80
2017-10-30T09:36:17.477Z,2.00
2017-10-30T09:38:45.027Z,1.53
2017-10-30T09:41:13.250Z,2.07
2017-10-30T09:43:40.725Z,2.07
2017-10-30T09:46:08.201Z,2.60
2017-10-30T09:48:35.669Z,1.73
2017-10-30T09:51:03.136Z,1.80
2017-10-30T09:53:31.353Z,1.77
2017-10-30T09:55:59.010Z,1.83
2017-10-30T09:58:26.462Z,1.50
2017-10-30T10:00:53.929Z,1.37
2017-10-30T10:03:21.398Z,1.20
2017-10-30T10:05:48.851Z,1.50
2017-10-30T10:08:16.337Z,1.73
2017-10-30T10:10:43.788Z,2.30
2017-10-30T10:13:11.282Z,2.33
2017-10-30T10:15:39.497Z,1.47
2017-10-30T10:18:06.951Z,1.30
2017-10-30T10:20:34.430Z,1.90
2017-10-30T10:23:01.885Z,2.50
2017-10-30T10:25:29.366Z,1.70
2017-10-30T10:27:56.853Z,1.43
2017-10-30T10:30:25.176Z,1.53
2017-10-30T10:32:52.625Z,1.37
2017-10-30T10:35:20.084Z,1.20
2017-10-30T10:37:49.288Z,1.97
2017-10-30T10:40:16.810Z,1.47
2017-10-30T10:42:45.053Z,1.77
2017-10-30T10:45:13.283Z,1.87
2017-10-30T10:47:40.762Z,1.80
2017-10-30T10:50:08.205Z,0.60
2017-10-30T10:52:35.673Z,1.53
2017-10-30T10:55:03.130Z,1.30
2017-10-30T10:57:30.602Z,1.27
2017-10-30T10:59:58.110Z,1.43
2017-10-30T11:02:26.366Z,1.47
2017-10-30T11:04:53.848Z,1.53
2017-10-30T11:07:22.096Z,1.40
2017-10-30T11:09:49.543Z,1.10
2017-10-30T11:12:17.030Z,1.20
2017-10-30T11:14:45.316Z,2.13
2017-10-30T11:17:13.550Z,1.80
2017-10-30T11:19:41.014Z,0.97
2017-10-30T11:22:08.502Z,1.67
2017-10-30T11:24:36.723Z,2.27
2017-10-30T11:27:04.174Z,1.40
2017-10-30T11:29:31.706Z,0.83
2017-10-30T11:31:59.986Z,1.90
2017-10-30T11:34:28.228Z,1.03
2017-10-30T11:36:55.713Z,1.67
2017-10-30T11:39:23.958Z,1.23
2017-10-30T11:41:51.461Z,1.30
2017-10-30T11:44:19.831Z,1.77
2017-10-30T11:46:47.323Z,1.60
2017-10-30T11:49:14.766Z,1.47
2017-10-30T11:51:42.213Z,1.50
2017-10-30T11:54:09.699Z,1.10
2017-10-30T11:56:37.162Z,0.97
2017-10-30T11:59:04.681Z,1.20
2017-10-30T12:01:32.941Z,1.73
2017-10-30T12:04:01.166Z,2.80
2017-10-30T12:06:28.644Z,1.80
2017-10-30T12:08:56.137Z,2.13
2017-10-30T12:11:23.605Z,1.60
2017-10-30T12:13:51.843Z,1.43
2017-10-30T12:16:19.332Z,1.50
2017-10-30T12:18:47.581Z,1.93
2017-10-30T12:21:15.062Z,0.90
2017-10-30T12:23:43.293Z,1.80
2017-10-30T12:26:10.773Z,1.63
2017-10-30T12:28:38.250Z,1.60
2017-10-30T12:31:05.717Z,1.50
2017-10-30T12:33:33.947Z,1.20
2017-10-30T12:36:01.457Z,1.50
2017-10-30T12:38:29.709Z,1.20
2017-10-30T12:40:57.161Z,1.83
2017-10-30T12:43:24.614Z,1.30
2017-10-30T12:45:52.094Z,1.60
2017-10-30T12:48:19.554Z,1.93
2017-10-30T12:50:47.029Z,1.13
2017-10-30T12:53:15.254Z,1.50
2017-10-30T12:55:42.729Z,1.00
2017-10-30T12:58:10.181Z,1.30
2017-10-30T13:00:37.642Z,1.70
2017-10-30T13:03:05.109Z,1.10
2017-10-30T13:05:32.559Z,1.23
2017-10-30T13:08:00.039Z,1.20
2017-10-30T13:10:27.485Z,1.07
2017-10-30T13:12:54.950Z,1.47
2017-10-30T13:15:22.404Z,1.97
2017-10-30T13:17:49.870Z,1.60
2017-10-30T13:20:18.169Z,1.33
2017-10-30T13:22:45.629Z,1.20
2017-10-30T13:25:13.111Z,1.77
2017-10-30T13:27:40.594Z,1.20
2017-10-30T13:30:08.059Z,1.10
2017-10-30T13:32:35.532Z,1.00
2017-10-30T13:35:02.999Z,1.80
2017-10-30T13:37:30.476Z,1.30
2017-10-30T13:39:57.962Z,1.63
2017-10-30T13:42:25.423Z,1.87
2017-10-30T13:44:52.885Z,1.10
2017-10-30T13:47:20.371Z,1.60
2017-10-30T13:49:47.873Z,1.10
2017-10-30T13:52:15.346Z,1.43
2017-10-30T13:54:42.831Z,1.37
2017-10-30T13:57:10.295Z,2.30
2017-10-30T13:59:37.746Z,1.57
2017-10-30T14:02:05.243Z,1.63
2017-10-30T14:04:33.478Z,1.30
2017-10-30T14:07:00.947Z,1.30
2017-10-30T14:09:28.421Z,1.30
2017-10-30T14:11:55.901Z,1.20
2017-10-30T14:14:23.354Z,1.43
2017-10-30T14:16:51.594Z,1.47
2017-10-30T14:19:19.129Z,1.63
2017-10-30T14:21:46.599Z,1.33
2017-10-30T14:24:14.051Z,1.00
2017-10-30T14:26:41.525Z,1.13
2017-10-30T14:29:09.389Z,1.03
2017-10-30T14:31:37.658Z,1.13
2017-10-30T14:34:05.110Z,1.10
2017-10-30T14:36:32.590Z,2.67
2017-10-30T14:39:00.043Z,1.43
2017-10-30T14:41:27.578Z,2.40
2017-10-30T14:43:55.028Z,1.07
2017-10-30T14:46:22.482Z,1.30
2017-10-30T14:48:49.961Z,1.10
2017-10-30T14:51:17.415Z,1.27
2017-10-30T14:53:44.857Z,1.20
2017-10-30T14:56:12.392Z,1.60
2017-10-30T14:58:40.702Z,2.20
2017-10-30T15:01:08.173Z,1.37
2017-10-30T15:03:35.713Z,1.70
2017-10-30T15:06:03.191Z,2.10
2017-10-30T15:08:30.701Z,1.63
2017-10-30T15:10:58.221Z,1.40
2017-10-30T15:13:25.704Z,2.73
2017-10-30T15:15:53.181Z,1.13
2017-10-30T15:18:21.415Z,1.57
2017-10-30T15:20:48.951Z,1.60
2017-10-30T15:23:16.451Z,1.23
2017-10-30T15:25:43.933Z,1.30
2017-10-30T15:28:11.382Z,1.27
2017-10-30T15:30:38.889Z,1.33
2017-10-30T15:33:06.377Z,1.40
2017-10-30T15:35:33.917Z,1.27
2017-10-30T15:38:01.422Z,1.70
2017-10-30T15:40:29.661Z,1.07
2017-10-30T15:42:57.154Z,0.90
2017-10-30T15:45:25.890Z,0.90
2017-10-30T15:47:53.353Z,1.20
2017-10-30T15:50:20.906Z,1.10
2017-10-30T15:52:48.370Z,1.60
2017-10-30T15:55:15.818Z,1.17
2017-10-30T15:57:43.302Z,1.03
2017-10-30T16:00:10.759Z,1.43
2017-10-30T16:02:38.226Z,1.07
2017-10-30T16:05:05.706Z,1.77
2017-10-30T16:07:33.172Z,1.00
2017-10-30T16:10:00.654Z,1.33
2017-10-30T16:12:28.102Z,2.03
2017-10-30T16:14:55.549Z,1.63
2017-10-30T16:17:23.046Z,2.17
2017-10-30T16:19:50.502Z,2.37
2017-10-30T16:22:17.961Z,1.33
2017-10-30T16:24:45.442Z,1.60
2017-10-30T16:27:12.943Z,1.30
2017-10-30T16:29:41.177Z,2.17
2017-10-30T16:32:08.634Z,6.57
2017-10-30T16:34:36.121Z,10.97
2017-10-30T16:37:03.620Z,9.00
2017-10-30T16:39:31.117Z,7.50
2017-10-30T16:41:58.565Z,5.27
2017-10-30T16:44:26.065Z,5.40
2017-10-30T16:46:54.305Z,5.50
2017-10-30T16:49:21.790Z,4.60
2017-10-30T16:51:49.238Z,2.93
2017-10-30T16:54:16.718Z,3.90
2017-10-30T16:56:44.190Z,6.70
2017-10-30T16:59:11.685Z,9.27
2017-10-30T17:01:39.154Z,7.80
2017-10-30T17:04:06.605Z,6.63
2017-10-30T17:06:34.096Z,4.93
2017-10-30T17:09:01.690Z,6.30
2017-10-30T17:11:29.273Z,4.57
2017-10-30T17:13:57.590Z,7.07
2017-10-30T17:16:25.079Z,7.67
2017-10-30T17:18:52.563Z,6.57
2017-10-30T17:21:20.041Z,5.80
2017-10-30T17:23:47.581Z,6.27
2017-10-30T17:26:15.056Z,5.00
2017-10-30T17:28:42.542Z,4.43
2017-10-30T17:31:10.032Z,4.90
2017-10-30T17:33:38.286Z,3.90
2017-10-30T17:36:06.916Z,7.95
2017-10-30T17:38:34.734Z,4.97
2017-10-30T17:41:02.262Z,4.60
2017-10-30T17:43:30.117Z,4.10
2017-10-30T17:45:57.717Z,4.37
2017-10-30T17:48:25.306Z,3.60
2017-10-30T17:50:52.908Z,4.00
2017-10-30T17:53:20.515Z,3.93
2017-10-30T17:55:48.001Z,3.87
2017-10-30T17:58:15.547Z,3.40
2017-10-30T18:00:43.463Z,3.70
2017-10-30T18:03:11.055Z,4.83
2017-10-30T18:05:39.366Z,3.53
2017-10-30T18:08:06.948Z,3.40
2017-10-30T18:10:34.614Z,3.17
2017-10-30T18:13:02.143Z,4.93
2017-10-30T18:15:29.688Z,5.03
2017-10-30T18:17:58.181Z,4.30
2017-10-30T18:20:25.723Z,5.67
2017-10-30T18:22:53.261Z,7.50
2017-10-30T18:25:21.722Z,11.17
2017-10-30T18:27:49.332Z,8.53
2017-10-30T18:30:16.999Z,9.73
2017-10-30T18:32:44.707Z,5.90
2017-10-30T18:35:12.369Z,6.20
2017-10-30T18:37:39.975Z,5.43
2017-10-30T18:40:08.325Z,5.60
2017-10-30T18:42:35.809Z,5.97
2017-10-30T18:45:03.643Z,4.43
2017-10-30T18:47:31.315Z,4.10
2017-10-30T18:49:59.049Z,5.07
2017-10-30T18:52:26.727Z,4.30
2017-10-30T18:54:54.240Z,4.57
2017-10-30T18:57:22.555Z,6.23
2017-10-30T18:59:51.101Z,5.43
2017-10-30T19:02:19.635Z,4.90
2017-10-30T19:04:47.882Z,6.93
2017-10-30T19:07:15.354Z,5.60
2017-10-30T19:09:42.837Z,4.50
2017-10-30T19:12:10.304Z,5.10
2017-10-30T19:14:38.109Z,4.20
2017-10-30T19:17:06.334Z,5.70
2017-10-30T19:19:33.790Z,3.77
2017-10-30T19:22:01.266Z,3.53
2017-10-30T19:24:29.245Z,4.18
2017-10-30T19:26:56.722Z,3.57
2017-10-30T19:29:24.982Z,3.73
2017-10-30T19:31:52.455Z,3.90
2017-10-30T19:34:20.690Z,5.17
2017-10-30T19:36:48.957Z,4.33
2017-10-30T19:39:16.408Z,5.20
2017-10-30T19:41:44.058Z,5.47
2017-10-30T19:44:11.498Z,4.20
2017-10-30T19:46:39.009Z,4.20
2017-10-30T19:49:07.551Z,4.30
2017-10-30T19:51:35.435Z,4.50
2017-10-30T19:54:02.929Z,5.10
2017-10-30T19:56:30.406Z,7.03
2017-10-30T19:58:57.865Z,6.43
2017-10-30T20:01:26.084Z,7.00
2017-10-30T20:03:53.549Z,6.90
2017-10-30T20:06:26.749Z,6.90
2017-10-30T20:09:00.231Z,5.27
2017-10-30T20:14:31.732Z,6.23
2017-10-30T20:16:59.216Z,4.63
2017-10-30T20:19:26.677Z,4.60
2017-10-30T20:21:54.163Z,3.97
2017-10-30T20:24:21.622Z,4.77
2017-10-30T20:26:49.091Z,4.20
2017-10-30T20:29:16.974Z,4.10
2017-10-30T20:31:44.851Z,4.13
2017-10-30T20:34:13.397Z,3.63
2017-10-30T20:36:41.524Z,4.17
2017-10-30T20:39:09.045Z,5.13
2017-10-30T20:41:36.793Z,4.80
2017-10-30T20:44:04.751Z,5.13
2017-10-30T20:46:32.227Z,5.40
2017-10-30T20:48:59.990Z,4.87
2017-10-30T20:51:27.445Z,4.47
2017-10-30T20:53:55.106Z,6.33
2017-10-30T20:56:22.645Z,4.67
2017-10-30T20:58:51.036Z,5.33
2017-10-30T21:01:18.497Z,6.77
2017-10-30T21:03:46.721Z,5.20
2017-10-30T21:06:14.473Z,4.47
2017-10-30T21:08:42.187Z,5.80
2017-10-30T21:11:10.621Z,6.73
2017-10-30T21:13:38.284Z,5.80
2017-10-30T21:16:05.822Z,4.70
2017-10-30T21:18:33.304Z,5.10
2017-10-30T21:21:00.756Z,6.30
2017-10-30T21:23:28.221Z,4.60
2017-10-30T21:25:55.697Z,5.13
2017-10-30T21:28:23.165Z,5.40
2017-10-30T21:30:50.639Z,5.07
2017-10-30T21:33:18.935Z,5.07
2017-10-30T21:35:47.161Z,5.30
2017-10-30T21:38:15.389Z,3.53
2017-10-30T21:40:42.869Z,4.63
2017-10-30T21:43:10.328Z,4.60
2017-10-30T21:45:37.781Z,4.53
2017-10-30T21:48:05.291Z,5.70
2017-10-30T21:50:33.586Z,6.43
2017-10-30T21:53:02.735Z,6.07
2017-10-30T21:55:30.387Z,6.80
2017-10-30T21:57:57.869Z,7.87
2017-10-30T22:00:25.327Z,7.30
2017-10-30T22:02:52.799Z,6.53
2017-10-30T22:05:20.272Z,8.60
2017-10-30T22:07:47.774Z,8.70
2017-10-30T22:10:15.318Z,8.43
2017-10-30T22:12:42.764Z,6.40
2017-10-30T22:15:10.244Z,4.10
2017-10-30T22:20:34.386Z,4.57
2017-10-30T22:23:01.900Z,3.90
2017-10-30T22:25:29.391Z,3.50
2017-10-30T22:27:56.878Z,4.47
2017-10-30T22:30:24.345Z,5.90
2017-10-30T22:32:51.835Z,4.00
2017-10-30T22:35:19.297Z,3.40
2017-10-30T22:37:46.809Z,3.70
2017-10-30T22:40:14.298Z,4.13
2017-10-30T22:42:41.760Z,4.40
2017-10-30T22:45:09.249Z,4.00
2017-10-30T22:47:36.694Z,4.00
2017-10-30T22:50:04.137Z,3.93
2017-10-30T22:52:31.622Z,3.97
2017-10-30T22:54:59.106Z,3.77
2017-10-30T22:57:26.562Z,4.00
2017-10-30T22:59:54.025Z,3.40
2017-10-30T23:02:21.502Z,4.23
2017-10-30T23:04:48.978Z,3.60
2017-10-30T23:07:16.429Z,3.70
2017-10-30T23:09:43.970Z,3.33
2017-10-30T23:12:11.457Z,3.67
2017-10-30T23:14:38.949Z,3.73
2017-10-30T23:17:06.441Z,3.43
2017-10-30T23:19:35.204Z,2.80
2017-10-30T23:22:02.654Z,3.97
2017-10-30T23:24:30.150Z,3.60
2017-10-30T23:26:57.606Z,3.53
2017-10-30T23:29:25.077Z,3.27
2017-10-30T23:31:53.306Z,3.77
2017-10-30T23:34:20.758Z,3.47
2017-10-30T23:36:48.241Z,3.23
2017-10-30T23:39:15.719Z,3.97
2017-10-30T23:41:43.178Z,3.50
2017-10-30T23:44:11.417Z,3.70
2017-10-30T23:46:38.870Z,3.83
2017-10-30T23:49:06.329Z,4.13
2017-10-30T23:51:34.729Z,4.07
2017-10-30T23:54:02.266Z,4.20
2017-10-30T23:56:29.718Z,4.00
2017-10-30T23:58:57.250Z,4.90
